Time;durP1;ratioP1;P1;durP2;ratioP2;P2;SDS_P1;SDS_P2;PMS_P1;PMS_P2;Temp;Humidity;BMP_temperature;BMP_pressure;BME280_temperature;BME280_humidity;BME280_pressure;Samples;Min_cycle;Max_cycle;Signal;HPM_P1;HPM_P2
2023/08/05 00:02:57;;;;;;;15.25;9.35;;;15.40;99.90;;;;;;6380171;27;20048;-80
2023/08/05 00:05:59;;;;;;;16.05;9.63;;;15.40;99.90;;;;;;6380289;27;20050;-78
2023/08/05 00:09:00;;;;;;;13.68;9.70;;;15.40;99.90;;;;;;6380064;27;20051;-80
2023/08/05 00:12:04;;;;;;;13.50;8.75;;;15.40;99.90;;;;;;6379797;27;20642;-79
2023/08/05 00:15:07;;;;;;;17.55;9.45;;;15.40;99.90;;;;;;6379668;27;20051;-79
2023/08/05 00:18:09;;;;;;;20.30;9.93;;;15.40;99.90;;;;;;6379988;27;20516;-79
2023/08/05 00:21:11;;;;;;;17.65;8.55;;;15.40;99.90;;;;;;6379349;27;20183;-79
2023/08/05 00:24:12;;;;;;;18.00;9.00;;;15.40;99.90;;;;;;6380149;27;20043;-80
2023/08/05 00:27:15;;;;;;;20.38;8.82;;;15.40;99.90;;;;;;6380123;27;20043;-79
2023/08/05 00:30:17;;;;;;;12.23;8.55;;;15.40;99.90;;;;;;6380024;27;20043;-80
2023/08/05 00:33:19;;;;;;;15.75;10.10;;;15.40;99.90;;;;;;6379277;27;20046;-79
2023/08/05 00:36:20;;;;;;;20.48;8.48;;;15.40;99.90;;;;;;6379060;27;20046;-79
2023/08/05 00:39:22;;;;;;;17.63;11.27;;;15.40;99.90;;;;;;6378958;27;20051;-80
2023/08/05 00:42:27;;;;;;;12.18;8.40;;;15.40;99.90;;;;;;6379242;27;20050;-78
2023/08/05 00:45:29;;;;;;;15.32;8.45;;;15.40;99.90;;;;;;6379194;27;20043;-79
2023/08/05 00:48:30;;;;;;;10.68;7.70;;;15.40;99.90;;;;;;6378291;27;20049;-80
2023/08/05 00:51:32;;;;;;;17.02;7.25;;;15.40;99.90;;;;;;6376434;27;20049;-80
2023/08/05 00:54:34;;;;;;;16.73;9.57;;;15.40;99.90;;;;;;6377384;27;20054;-81
2023/08/05 00:57:37;;;;;;;13.55;8.90;;;15.30;99.90;;;;;;6376211;27;20043;-80
2023/08/05 01:00:39;;;;;;;14.02;8.23;;;15.30;99.90;;;;;;6378017;27;20039;-80
2023/08/05 01:03:41;;;;;;;14.15;8.23;;;15.30;99.90;;;;;;6379334;27;20043;-79
2023/08/05 01:06:43;;;;;;;11.48;7.10;;;15.30;99.90;;;;;;6379028;27;20054;-79
2023/08/05 01:09:45;;;;;;;19.55;9.27;;;15.20;99.90;;;;;;6376736;27;20043;-78
2023/08/05 01:12:49;;;;;;;12.35;7.93;;;15.20;99.90;;;;;;6377209;27;20062;-78
2023/08/05 01:15:50;;;;;;;15.70;8.18;;;15.10;99.90;;;;;;6379140;27;20092;-80
2023/08/05 01:18:53;;;;;;;16.15;8.23;;;15.10;99.90;;;;;;6378447;27;20050;-79
2023/08/05 01:22:03;;;;;;;14.18;7.85;;;15.00;99.90;;;;;;6379239;27;20047;-80
2023/08/05 01:25:10;;;;;;;15.60;8.60;;;15.00;99.90;;;;;;6378980;27;20051;-79
2023/08/05 01:28:15;;;;;;;11.23;8.05;;;15.00;99.90;;;;;;6377091;27;20077;-79
2023/08/05 01:31:17;;;;;;;17.92;8.10;;;14.90;99.90;;;;;;6378366;27;20039;-80
2023/08/05 01:34:19;;;;;;;13.65;8.15;;;14.90;99.90;;;;;;6377852;27;20417;-79
2023/08/05 01:37:21;;;;;;;17.77;8.85;;;14.80;99.90;;;;;;6377719;27;20050;-80
2023/08/05 01:40:27;;;;;;;16.17;8.30;;;14.80;99.90;;;;;;6377842;27;20047;-79
2023/08/05 01:43:30;;;;;;;16.02;8.80;;;14.80;99.90;;;;;;6378277;27;20047;-79
2023/08/05 01:46:32;;;;;;;17.55;8.45;;;14.70;99.90;;;;;;6377891;27;20669;-79
2023/08/05 01:49:35;;;;;;;15.13;8.20;;;14.60;99.90;;;;;;6377316;27;20050;-80
2023/08/05 01:52:37;;;;;;;15.73;9.20;;;14.60;99.90;;;;;;6377619;27;20054;-78
2023/08/05 01:55:39;;;;;;;20.67;10.40;;;14.60;99.90;;;;;;6377847;27;20046;-78
2023/08/05 01:58:42;;;;;;;16.80;9.23;;;14.60;99.90;;;;;;6377871;27;20043;-80
2023/08/05 02:01:44;;;;;;;15.30;8.85;;;14.60;99.90;;;;;;6377417;27;20043;-80
2023/08/05 02:04:46;;;;;;;17.23;8.68;;;14.50;99.90;;;;;;6376356;27;20043;-80
2023/08/05 02:07:48;;;;;;;20.42;11.73;;;14.50;99.90;;;;;;6376806;27;20421;-79
2023/08/05 02:10:49;;;;;;;20.02;8.90;;;14.40;99.90;;;;;;6376675;27;20046;-79
2023/08/05 02:13:52;;;;;;;21.05;10.52;;;14.40;99.90;;;;;;6376924;27;20517;-78
2023/08/05 02:16:54;;;;;;;22.77;9.65;;;14.40;99.90;;;;;;6376156;27;20054;-79
2023/08/05 02:19:56;;;;;;;20.25;9.60;;;14.40;99.90;;;;;;6376438;27;20517;-78
2023/08/05 02:22:57;;;;;;;15.82;8.98;;;14.30;99.90;;;;;;6375993;27;20533;-79
2023/08/05 02:26:01;;;;;;;19.25;9.40;;;14.30;99.90;;;;;;6377276;27;20054;-80
2023/08/05 02:29:04;;;;;;;24.33;9.88;;;14.30;99.90;;;;;;6376575;27;20036;-78
2023/08/05 02:32:06;;;;;;;21.42;10.93;;;14.20;99.90;;;;;;6376026;27;20391;-79
2023/08/05 02:35:08;;;;;;;24.17;9.90;;;14.20;99.90;;;;;;6376660;27;20054;-79
2023/08/05 02:38:10;;;;;;;17.23;9.35;;;14.10;99.90;;;;;;6376040;27;20047;-80
2023/08/05 02:41:12;;;;;;;17.77;8.48;;;14.10;99.90;;;;;;6375209;27;20122;-79
2023/08/05 02:44:15;;;;;;;15.50;8.07;;;14.00;99.90;;;;;;6376484;27;20047;-79
2023/08/05 02:47:17;;;;;;;18.02;8.60;;;14.00;99.90;;;;;;6376149;27;20115;-79
2023/08/05 02:50:18;;;;;;;16.33;8.57;;;14.00;99.90;;;;;;6376702;27;20049;-77
2023/08/05 02:53:21;;;;;;;17.95;8.20;;;13.90;99.90;;;;;;6375665;27;20413;-78
2023/08/05 02:56:22;;;;;;;20.08;8.95;;;13.90;99.90;;;;;;6376066;27;20050;-79
2023/08/05 02:59:25;;;;;;;25.13;10.52;;;13.80;99.90;;;;;;6374826;27;20059;-79
2023/08/05 03:02:27;;;;;;;25.50;9.55;;;13.80;99.90;;;;;;6375249;27;20055;-79
2023/08/05 03:05:29;;;;;;;19.73;9.70;;;13.80;99.90;;;;;;6371420;27;20039;-78
2023/08/05 03:08:31;;;;;;;26.05;10.27;;;13.70;99.90;;;;;;6370110;27;20502;-78
2023/08/05 03:11:32;;;;;;;24.60;9.63;;;13.70;99.90;;;;;;6374943;27;20156;-78
2023/08/05 03:14:35;;;;;;;21.08;10.15;;;13.70;99.90;;;;;;6376055;27;20057;-79
2023/08/05 03:17:37;;;;;;;21.75;10.85;;;13.60;99.90;;;;;;6373894;27;20502;-78
2023/08/05 03:20:39;;;;;;;22.23;9.80;;;13.60;99.90;;;;;;6374760;27;20066;-79
2023/08/05 03:23:40;;;;;;;27.00;11.43;;;13.60;99.90;;;;;;6375173;27;20047;-78
2023/08/05 03:26:42;;;;;;;22.63;9.88;;;13.60;99.90;;;;;;6376140;27;20517;-78
2023/08/05 03:29:47;;;;;;;28.23;12.40;;;13.50;99.90;;;;;;6374607;27;20513;-78
2023/08/05 03:32:49;;;;;;;22.92;10.45;;;13.50;99.90;;;;;;6375314;27;20054;-77
2023/08/05 03:35:51;;;;;;;23.77;11.70;;;13.50;99.90;;;;;;6374086;27;20049;-79
2023/08/05 03:38:52;;;;;;;27.23;11.38;;;13.50;99.90;;;;;;6374512;27;20413;-78
2023/08/05 03:41:54;;;;;;;28.35;11.60;;;13.50;99.90;;;;;;6375993;27;20047;-79
2023/08/05 03:44:57;;;;;;;26.40;10.60;;;13.50;99.90;;;;;;6375175;27;20090;-77
2023/08/05 03:47:59;;;;;;;24.33;11.50;;;13.50;99.90;;;;;;6374834;27;20107;-79
2023/08/05 03:51:01;;;;;;;29.90;11.90;;;13.60;99.90;;;;;;6374079;28;20043;-79
2023/08/05 03:54:03;;;;;;;23.65;9.48;;;13.60;99.90;;;;;;6374965;28;20043;-77
2023/08/05 03:57:08;;;;;;;21.73;10.35;;;13.60;99.90;;;;;;6374229;28;20050;-78
2023/08/05 04:00:11;;;;;;;23.70;11.13;;;13.60;99.90;;;;;;6374124;28;20175;-79
2023/08/05 04:03:13;;;;;;;21.17;9.90;;;13.60;99.90;;;;;;6374621;28;20046;-79
2023/08/05 04:06:15;;;;;;;23.10;10.18;;;13.50;99.90;;;;;;6375484;28;20055;-79
2023/08/05 04:09:18;;;;;;;21.25;9.77;;;13.50;99.90;;;;;;6373975;28;20051;-78
2023/08/05 04:12:20;;;;;;;22.20;11.07;;;13.50;99.90;;;;;;6374911;28;20080;-79
2023/08/05 04:15:25;;;;;;;24.20;10.02;;;13.40;99.90;;;;;;6374969;28;20062;-80
2023/08/05 04:18:27;;;;;;;25.85;11.82;;;13.40;99.90;;;;;;6374703;28;20632;-79
2023/08/05 04:21:35;;;;;;;35.47;11.55;;;13.40;99.90;;;;;;6374833;28;20047;-78
2023/08/05 04:24:36;;;;;;;30.40;11.77;;;13.40;99.90;;;;;;6373865;28;20201;-79
2023/08/05 04:27:38;;;;;;;32.03;11.48;;;13.40;99.90;;;;;;6373750;28;20289;-79
2023/08/05 04:30:41;;;;;;;21.08;11.57;;;13.40;99.90;;;;;;6375358;28;20050;-78
2023/08/05 04:33:43;;;;;;;24.45;13.75;;;13.40;99.90;;;;;;6371238;28;20054;-77
2023/08/05 04:36:48;;;;;;;29.80;12.43;;;13.40;99.90;;;;;;6370288;28;20058;-77
2023/08/05 04:39:50;;;;;;;30.95;13.48;;;13.40;99.90;;;;;;6370240;28;20067;-77
2023/08/05 04:42:51;;;;;;;24.40;11.10;;;13.40;99.90;;;;;;6370233;28;20086;-77
2023/08/05 04:45:54;;;;;;;31.77;12.95;;;13.40;99.90;;;;;;6370315;27;20066;-77
2023/08/05 04:48:56;;;;;;;27.23;11.52;;;13.50;99.90;;;;;;6376967;27;20524;-78
2023/08/05 04:51:58;;;;;;;26.98;11.88;;;13.50;99.90;;;;;;6379555;27;20043;-79
2023/08/05 04:55:08;;;;;;;29.17;12.15;;;13.50;99.90;;;;;;6378658;27;20049;-78
2023/08/05 04:58:11;;;;;;;29.08;12.77;;;13.60;99.90;;;;;;6379358;27;20047;-78
2023/08/05 05:01:14;;;;;;;31.58;14.85;;;13.70;99.90;;;;;;6379202;27;20072;-79
2023/08/05 05:04:15;;;;;;;27.63;12.30;;;13.80;99.90;;;;;;6378570;27;20417;-77
2023/08/05 05:07:17;;;;;;;34.45;14.57;;;13.90;99.90;;;;;;6378275;27;20054;-78
2023/08/05 05:10:19;;;;;;;30.52;13.18;;;14.00;99.90;;;;;;6371109;27;20053;-78
2023/08/05 05:13:20;;;;;;;25.35;13.02;;;14.20;99.90;;;;;;6378355;27;20050;-79
2023/08/05 05:16:23;;;;;;;29.55;14.90;;;14.30;99.90;;;;;;6378901;27;20047;-78
2023/08/05 05:19:25;;;;;;;23.20;12.27;;;14.50;99.90;;;;;;6378294;27;20039;-79
2023/08/05 05:22:27;;;;;;;30.50;14.55;;;14.60;99.90;;;;;;6378693;27;20047;-77
2023/08/05 05:25:28;;;;;;;26.15;14.18;;;14.80;99.90;;;;;;6377342;27;20050;-79
2023/08/05 05:28:30;;;;;;;28.00;12.63;;;15.00;99.90;;;;;;6377131;27;20046;-78
2023/08/05 05:31:33;;;;;;;26.13;12.63;;;15.10;99.90;;;;;;6377360;27;20118;-79
2023/08/05 05:34:35;;;;;;;19.83;11.27;;;15.20;99.90;;;;;;6378635;27;20047;-79
2023/08/05 05:37:36;;;;;;;16.80;10.82;;;15.30;99.90;;;;;;6377403;27;20047;-78
2023/08/05 05:40:40;;;;;;;16.30;11.20;;;15.40;99.90;;;;;;6377145;27;20054;-78
2023/08/05 05:43:42;;;;;;;20.25;11.93;;;15.60;99.90;;;;;;6377003;27;20070;-79
2023/08/05 05:46:45;;;;;;;19.17;11.13;;;15.70;99.90;;;;;;6378394;27;20445;-78
2023/08/05 05:49:47;;;;;;;14.20;11.02;;;15.90;99.90;;;;;;6377708;27;20043;-77
2023/08/05 05:52:50;;;;;;;13.55;9.57;;;16.20;99.90;;;;;;6377356;27;20049;-79
2023/08/05 05:55:53;;;;;;;10.30;8.88;;;16.60;99.90;;;;;;6376467;27;20082;-78
2023/08/05 05:58:55;;;;;;;10.48;8.95;;;17.10;99.90;;;;;;6375729;27;20451;-79
2023/08/05 06:01:58;;;;;;;11.73;7.43;;;17.70;99.90;;;;;;6376959;27;20065;-79
2023/08/05 06:05:00;;;;;;;7.60;6.63;;;18.20;99.90;;;;;;6377430;27;20050;-79
2023/08/05 06:08:02;;;;;;;7.57;6.28;;;18.90;99.90;;;;;;6378077;27;20058;-80
2023/08/05 06:11:04;;;;;;;6.43;4.75;;;19.50;99.90;;;;;;6377976;27;20051;-78
2023/08/05 06:14:06;;;;;;;8.50;6.05;;;20.10;99.90;;;;;;6378097;27;20531;-79
2023/08/05 06:17:09;;;;;;;8.00;6.00;;;20.50;99.90;;;;;;6376267;27;20039;-79
2023/08/05 06:20:12;;;;;;;6.57;5.57;;;20.80;99.90;;;;;;6376134;27;20040;-79
2023/08/05 06:23:13;;;;;;;6.30;4.72;;;20.90;99.90;;;;;;6376475;27;20035;-79
2023/08/05 06:26:15;;;;;;;10.63;4.72;;;21.20;99.90;;;;;;6376754;27;20054;-78
2023/08/05 06:29:17;;;;;;;5.70;5.10;;;21.60;99.90;;;;;;6376610;27;20043;-79
2023/08/05 06:32:20;;;;;;;4.72;4.32;;;22.10;99.90;;;;;;6376698;27;20051;-79
2023/08/05 06:35:22;;;;;;;6.35;4.25;;;22.40;99.90;;;;;;6375951;27;20736;-78
2023/08/05 06:38:24;;;;;;;8.52;4.70;;;22.60;99.90;;;;;;6375660;27;20058;-79
2023/08/05 06:41:26;;;;;;;6.65;4.13;;;22.80;99.90;;;;;;6375265;27;20057;-79
2023/08/05 06:44:28;;;;;;;6.43;4.70;;;23.00;99.90;;;;;;6343909;27;20043;-79
2023/08/05 06:47:32;;;;;;;5.30;4.72;;;23.00;99.90;;;;;;6349613;27;20054;-79
2023/08/05 06:50:34;;;;;;;4.05;3.67;;;23.20;99.90;;;;;;6368900;27;20047;-78
2023/08/05 06:53:39;;;;;;;4.53;4.13;;;23.50;99.90;;;;;;6367423;27;20559;-79
2023/08/05 06:56:40;;;;;;;5.90;4.13;;;23.80;99.90;;;;;;6375298;27;20051;-81
2023/08/05 06:59:42;;;;;;;5.75;3.90;;;24.30;99.90;;;;;;6369462;27;20047;-80
2023/08/05 07:02:45;;;;;;;6.38;4.25;;;24.50;99.90;;;;;;6377481;27;20057;-80
2023/08/05 07:05:48;;;;;;;5.60;4.15;;;24.80;99.90;;;;;;6376859;27;20026;-82
2023/08/05 07:08:50;;;;;;;4.20;3.80;;;25.20;99.90;;;;;;6376008;27;20046;-79
2023/08/05 07:11:54;;;;;;;4.72;3.70;;;25.50;99.90;;;;;;6375622;27;20042;-81
2023/08/05 07:14:55;;;;;;;7.32;4.40;;;24.80;99.90;;;;;;6372623;27;20061;-81
2023/08/05 07:17:58;;;;;;;5.72;4.05;;;23.50;99.90;;;;;;6370947;27;20054;-81
2023/08/05 07:21:01;;;;;;;3.75;3.42;;;22.80;99.90;;;;;;6374734;27;20539;-80
2023/08/05 07:24:02;;;;;;;3.83;3.30;;;23.20;99.90;;;;;;6376403;27;20043;-81
2023/08/05 07:27:05;;;;;;;4.45;3.53;;;24.00;99.90;;;;;;6375426;27;20055;-80
2023/08/05 07:30:08;;;;;;;4.50;4.00;;;24.40;99.90;;;;;;6374137;27;20043;-80
2023/08/05 07:33:12;;;;;;;13.55;8.85;;;24.60;99.90;;;;;;6375160;27;20425;-80
2023/08/05 07:36:16;;;;;;;13.80;6.80;;;25.00;99.90;;;;;;6377028;27;20050;-81
2023/08/05 07:39:18;;;;;;;7.72;5.00;;;25.50;99.90;;;;;;6386743;27;20054;-79
2023/08/05 07:42:22;;;;;;;5.72;3.60;;;25.50;99.90;;;;;;6395802;27;20057;-79
2023/08/05 07:45:27;;;;;;;8.32;5.30;;;25.60;99.90;;;;;;6398987;27;20042;-79
2023/08/05 07:48:34;;;;;;;5.10;3.53;;;26.00;99.90;;;;;;6387667;27;20086;-81
2023/08/05 07:51:38;;;;;;;5.90;3.80;;;26.10;99.90;;;;;;6377764;28;20045;-82
2023/08/05 07:54:40;;;;;;;5.45;3.53;;;26.20;99.90;;;;;;6363339;28;20389;-80
2023/08/05 07:57:42;;;;;;;6.55;4.50;;;26.30;99.90;;;;;;6366997;28;20039;-85
2023/08/05 08:00:44;;;;;;;6.20;3.78;;;26.70;99.90;;;;;;6367909;28;20043;-82
2023/08/05 08:03:48;;;;;;;7.15;3.22;;;26.60;99.90;;;;;;6376286;28;20103;-81
2023/08/05 08:06:50;;;;;;;4.00;3.38;;;26.60;99.90;;;;;;6375773;27;20047;-81
2023/08/05 08:09:51;;;;;;;4.45;4.05;;;26.30;99.90;;;;;;6376082;28;20532;-81
2023/08/05 08:12:53;;;;;;;4.80;3.30;;;26.20;99.90;;;;;;6371092;27;20046;-82
2023/08/05 08:15:55;;;;;;;4.05;3.05;;;26.00;99.90;;;;;;6370120;28;20039;-81
2023/08/05 08:18:58;;;;;;;7.22;3.05;;;26.20;99.90;;;;;;6368812;28;20044;-82
2023/08/05 08:22:00;;;;;;;3.05;2.83;;;26.60;99.90;;;;;;6377419;27;20043;-83
2023/08/05 08:25:01;;;;;;;8.55;3.70;;;27.10;99.90;;;;;;6380797;27;20043;-82
2023/08/05 08:28:03;;;;;;;4.72;2.60;;;27.20;99.90;;;;;;6382905;27;20053;-80
2023/08/05 08:31:05;;;;;;;3.90;3.50;;;27.10;99.90;;;;;;6382935;27;20057;-83
2023/08/05 08:34:08;;;;;;;4.40;3.30;;;27.20;99.90;;;;;;6382333;27;20043;-82
2023/08/05 08:37:10;;;;;;;3.40;3.10;;;27.30;99.90;;;;;;6381989;27;20042;-81
2023/08/05 08:40:12;;;;;;;3.20;2.90;;;26.80;99.90;;;;;;6380777;27;20043;-82
2023/08/05 08:43:15;;;;;;;3.40;3.10;;;26.80;99.90;;;;;;6381480;27;20498;-82
2023/08/05 08:46:19;;;;;;;4.57;3.20;;;26.90;99.90;;;;;;6381582;27;20051;-81
2023/08/05 08:49:23;;;;;;;4.15;3.40;;;26.90;99.90;;;;;;6367962;27;20046;-79
2023/08/05 08:52:27;;;;;;;6.57;3.28;;;26.80;99.90;;;;;;6364370;27;20051;-81
2023/08/05 08:55:30;;;;;;;4.72;3.10;;;26.40;99.90;;;;;;6374062;27;20046;-82
2023/08/05 08:58:32;;;;;;;3.45;2.60;;;26.70;99.90;;;;;;6375361;27;20043;-80
2023/08/05 09:01:35;;;;;;;3.88;3.15;;;27.00;99.90;;;;;;6376040;27;20043;-81
2023/08/05 09:04:40;;;;;;;7.82;3.65;;;26.90;99.90;;;;;;6376929;27;20051;-82
2023/08/05 09:07:43;;;;;;;3.50;3.20;;;26.80;99.90;;;;;;6379477;27;20062;-82
2023/08/05 09:10:45;;;;;;;5.65;3.80;;;26.70;99.90;;;;;;6382070;27;20050;-79
2023/08/05 09:13:47;;;;;;;5.50;3.25;;;26.80;99.90;;;;;;6380704;27;20421;-81
2023/08/05 09:16:59;;;;;;;4.35;3.38;;;27.20;99.90;;;;;;6374269;27;20050;-81
2023/08/05 09:20:11;;;;;;;3.53;3.22;;;27.40;99.90;;;;;;6378763;27;20142;-81
2023/08/05 09:23:13;;;;;;;4.20;3.80;;;27.10;99.90;;;;;;6355482;28;20042;-79
2023/08/05 09:26:15;;;;;;;4.22;3.13;;;27.10;99.90;;;;;;6368232;27;20051;-79
2023/08/05 09:29:22;;;;;;;3.47;2.70;;;27.30;99.90;;;;;;6374042;27;20047;-79
2023/08/05 09:32:23;;;;;;;8.10;3.35;;;26.80;99.90;;;;;;6371990;27;20059;-78
2023/08/05 09:35:26;;;;;;;5.22;3.00;;;26.20;99.90;;;;;;6381530;27;20043;-78
2023/08/05 09:38:28;;;;;;;4.65;3.05;;;26.10;99.90;;;;;;6382021;27;20046;-78
2023/08/05 09:41:31;;;;;;;4.68;3.67;;;25.90;99.90;;;;;;6382171;27;20039;-80
2023/08/05 09:44:34;;;;;;;3.80;3.22;;;25.30;99.90;;;;;;6381455;27;20054;-78
2023/08/05 09:47:37;;;;;;;4.28;3.80;;;24.70;99.90;;;;;;6381296;27;20046;-79
2023/08/05 09:50:40;;;;;;;4.05;3.45;;;24.30;99.90;;;;;;6380049;27;20050;-78
2023/08/05 09:53:43;;;;;;;6.80;3.45;;;24.20;99.90;;;;;;6378035;27;20482;-78
2023/08/05 09:56:45;;;;;;;5.15;3.30;;;24.10;99.90;;;;;;6377622;27;20051;-77
2023/08/05 09:59:48;;;;;;;6.00;3.15;;;24.10;99.90;;;;;;6377717;27;20051;-78
2023/08/05 10:02:51;;;;;;;4.38;2.80;;;24.10;99.90;;;;;;6377874;27;20039;-78
2023/08/05 10:05:56;;;;;;;4.53;3.28;;;24.20;99.90;;;;;;6380045;27;20482;-78
2023/08/05 10:08:58;;;;;;;5.15;4.55;;;24.00;99.90;;;;;;6379642;27;20054;-78
2023/08/05 10:12:01;;;;;;;5.22;3.00;;;23.90;99.90;;;;;;6378987;27;20389;-79
2023/08/05 10:15:05;;;;;;;3.65;2.70;;;24.20;99.90;;;;;;6379299;27;20536;-79
2023/08/05 10:18:08;;;;;;;5.80;2.88;;;24.30;99.90;;;;;;6376073;27;20050;-79
2023/08/05 10:21:12;;;;;;;3.40;3.10;;;24.10;99.90;;;;;;6379711;27;20039;-80
2023/08/05 10:24:13;;;;;;;4.03;2.88;;;23.80;99.90;;;;;;6378945;27;20076;-79
2023/08/05 10:27:15;;;;;;;7.47;4.00;;;23.70;99.90;;;;;;6380541;27;20051;-78
2023/08/05 10:30:17;;;;;;;4.32;2.45;;;24.00;99.90;;;;;;6380084;27;20043;-80
2023/08/05 10:33:20;;;;;;;2.25;2.05;;;24.30;99.90;;;;;;6368554;27;20521;-79
2023/08/05 10:36:41;;;;;;;2.88;2.40;;;24.40;99.90;;;;;;6363990;27;20046;-80
2023/08/05 10:39:44;;;;;;;5.72;3.28;;;24.40;99.90;;;;;;6368451;27;20054;-82
2023/08/05 10:42:48;;;;;;;6.20;4.22;;;24.10;99.90;;;;;;6380985;27;20085;-82
2023/08/05 10:45:49;;;;;;;2.25;2.05;;;24.30;99.90;;;;;;6380633;27;20043;-81
2023/08/05 10:48:51;;;;;;;2.58;2.33;;;24.50;99.90;;;;;;6383727;27;20050;-82
2023/08/05 10:51:54;;;;;;;2.67;2.03;;;24.80;99.90;;;;;;6383328;27;20043;-81
2023/08/05 10:54:56;;;;;;;4.28;2.25;;;24.80;99.90;;;;;;6379456;27;20047;-81
2023/08/05 10:57:59;;;;;;;4.18;3.00;;;24.60;99.90;;;;;;6381194;27;20043;-81
2023/08/05 11:01:03;;;;;;;2.53;2.25;;;24.80;99.90;;;;;;6383639;27;20042;-80
2023/08/05 11:04:28;;;;;;;3.58;2.20;;;25.10;99.90;;;;;;6375231;27;20044;-81
2023/08/05 11:07:32;;;;;;;1.70;1.60;;;25.00;99.90;;;;;;6367946;27;20094;-80
2023/08/05 11:10:36;;;;;;;5.20;2.10;;;25.30;99.90;;;;;;6379770;27;20062;-81
2023/08/05 11:13:39;;;;;;;2.38;2.08;;;25.70;99.90;;;;;;6382985;27;20539;-81
2023/08/05 11:16:45;;;;;;;3.58;2.22;;;25.80;99.90;;;;;;6377664;27;20063;-81
2023/08/05 11:19:53;;;;;;;12.02;4.30;;;26.00;99.90;;;;;;6383867;27;20035;-82
2023/08/05 11:22:56;;;;;;;6.60;2.85;;;26.40;99.90;;;;;;6384009;27;20043;-83
2023/08/05 11:26:02;;;;;;;9.52;3.90;;;26.90;99.90;;;;;;6381106;27;20048;-81
2023/08/05 11:29:04;;;;;;;3.20;2.08;;;27.20;99.90;;;;;;6380588;27;20417;-83
2023/08/05 11:32:06;;;;;;;2.28;2.03;;;27.50;99.90;;;;;;6381423;27;20045;-82
2023/08/05 11:35:09;;;;;;;4.05;2.05;;;27.90;99.90;;;;;;6381121;27;20868;-82
2023/08/05 11:38:12;;;;;;;2.53;1.70;;;28.30;99.40;;;;;;6384664;27;20058;-81
2023/08/05 11:41:14;;;;;;;1.65;1.55;;;28.60;98.40;;;;;;6374260;27;20524;-82
2023/08/05 11:44:18;;;;;;;2.60;2.08;;;28.80;96.80;;;;;;6378321;27;20051;-81
2023/08/05 11:47:19;;;;;;;2.60;2.00;;;28.40;95.10;;;;;;6375111;27;20202;-82
2023/08/05 11:50:21;;;;;;;3.15;2.00;;;28.30;93.90;;;;;;6376691;27;20054;-80
2023/08/05 11:53:25;;;;;;;2.13;1.67;;;28.10;92.50;;;;;;6381338;27;20134;-82
2023/08/05 11:56:32;;;;;;;4.70;2.00;;;28.10;91.20;;;;;;6378213;27;20127;-82
2023/08/05 11:59:43;;;;;;;3.90;2.13;;;27.90;88.80;;;;;;6380321;28;20054;-81
2023/08/05 12:02:45;;;;;;;4.00;2.22;;;28.00;88.20;;;;;;6357577;28;20044;-83
2023/08/05 12:09:42;;;;;;;2.60;1.95;;;26.80;86.00;;;;;;6364368;28;20047;-80
2023/08/05 12:12:46;;;;;;;3.80;1.88;;;27.00;87.00;;;;;;6350700;28;20139;-82
2023/08/05 12:15:54;;;;;;;2.10;1.55;;;27.20;85.00;;;;;;6369966;28;20043;-83
2023/08/05 12:18:57;;;;;;;2.05;1.85;;;27.40;83.10;;;;;;6381260;28;20043;-83
2023/08/05 12:21:58;;;;;;;2.38;2.03;;;27.60;82.00;;;;;;6380211;28;20043;-82
2023/08/05 12:25:09;;;;;;;2.38;1.58;;;28.10;80.10;;;;;;6383451;27;20130;-83
2023/08/05 12:28:11;;;;;;;4.20;2.00;;;28.20;79.50;;;;;;6379191;27;20058;-81
2023/08/05 12:31:13;;;;;;;1.98;1.27;;;27.90;77.90;;;;;;6379291;27;20059;-79
2023/08/05 12:34:17;;;;;;;2.17;1.60;;;27.60;77.30;;;;;;6378238;28;20204;-81
2023/08/05 12:37:19;;;;;;;3.30;1.55;;;27.30;76.60;;;;;;6377757;27;20077;-82
2023/08/05 12:40:22;;;;;;;1.42;1.33;;;27.40;78.10;;;;;;6376552;28;20630;-81
2023/08/05 12:43:24;;;;;;;4.10;1.95;;;27.80;75.80;;;;;;6377136;27;20047;-80
2023/08/05 12:46:25;;;;;;;2.08;1.65;;;27.50;74.20;;;;;;6381140;28;20043;-81
2023/08/05 12:49:27;;;;;;;2.35;1.63;;;27.80;74.50;;;;;;6373002;28;20113;-82
2023/08/05 12:52:29;;;;;;;1.77;1.08;;;28.00;72.50;;;;;;6377937;28;20039;-80
2023/08/05 12:55:32;;;;;;;1.73;1.60;;;28.00;72.30;;;;;;6369932;28;20131;-81
2023/08/05 12:58:34;;;;;;;5.28;2.55;;;28.00;71.50;;;;;;6379093;28;20077;-81
2023/08/05 13:01:36;;;;;;;1.95;1.40;;;27.90;71.40;;;;;;6380680;28;20051;-81
2023/08/05 13:04:38;;;;;;;3.22;1.80;;;27.70;71.90;;;;;;6379856;28;20070;-81
2023/08/05 13:07:40;;;;;;;1.73;1.58;;;28.10;72.70;;;;;;6381810;27;20047;-83
2023/08/05 13:10:44;;;;;;;2.33;2.13;;;28.60;71.80;;;;;;6384626;27;20039;-82
2023/08/05 13:13:46;;;;;;;4.85;2.33;;;28.70;71.70;;;;;;6385553;27;20072;-82
2023/08/05 13:16:48;;;;;;;4.35;2.72;;;28.80;72.20;;;;;;6380171;27;20042;-81
2023/08/05 13:19:49;;;;;;;2.15;1.92;;;29.00;72.30;;;;;;6381751;27;20041;-82
2023/08/05 13:22:51;;;;;;;2.55;1.92;;;29.10;70.60;;;;;;6384509;27;20061;-82
2023/08/05 13:25:54;;;;;;;1.88;1.77;;;29.10;71.00;;;;;;6384028;27;20054;-82
2023/08/05 13:28:56;;;;;;;2.40;1.75;;;29.40;70.90;;;;;;6384008;27;20051;-82
2023/08/05 13:31:58;;;;;;;3.53;1.83;;;29.60;70.50;;;;;;6383114;27;20043;-81
2023/08/05 13:34:59;;;;;;;2.90;1.85;;;29.50;68.90;;;;;;6384895;27;20047;-82
2023/08/05 13:38:01;;;;;;;1.70;1.60;;;29.20;69.00;;;;;;6385461;27;20047;-81
2023/08/05 13:41:04;;;;;;;4.88;1.70;;;29.30;69.20;;;;;;6384093;27;20043;-82
2023/08/05 13:44:06;;;;;;;1.60;1.50;;;29.10;66.40;;;;;;6384638;27;20043;-80
2023/08/05 13:47:08;;;;;;;1.95;1.77;;;28.60;66.60;;;;;;6383274;27;20504;-81
2023/08/05 13:50:10;;;;;;;3.08;2.10;;;28.20;67.20;;;;;;6385145;27;20047;-82
2023/08/05 13:53:12;;;;;;;2.80;1.73;;;27.90;68.00;;;;;;6372661;27;20064;-82
2023/08/05 13:56:15;;;;;;;2.08;1.55;;;28.00;68.30;;;;;;6367514;27;20039;-82
2023/08/05 13:59:16;;;;;;;3.92;1.70;;;28.00;67.50;;;;;;6386081;27;20047;-82
2023/08/05 14:02:18;;;;;;;3.70;2.35;;;28.10;67.50;;;;;;6376414;27;20057;-81
2023/08/05 14:05:20;;;;;;;2.83;1.80;;;28.10;67.40;;;;;;6372959;27;20051;-83
2023/08/05 14:08:22;;;;;;;2.45;1.90;;;28.00;67.50;;;;;;6382076;27;20055;-82
2023/08/05 14:11:25;;;;;;;2.25;2.05;;;27.90;67.80;;;;;;6382339;27;20054;-82
2023/08/05 14:14:27;;;;;;;3.22;2.35;;;27.90;67.40;;;;;;6383423;27;20054;-82
2023/08/05 14:17:29;;;;;;;2.35;2.08;;;27.30;67.20;;;;;;6382091;27;20045;-80
2023/08/05 14:20:31;;;;;;;3.80;2.17;;;26.90;68.80;;;;;;6381254;27;20053;-82
2023/08/05 14:23:33;;;;;;;2.40;2.10;;;27.00;69.30;;;;;;6384738;27;20047;-81
2023/08/05 14:26:36;;;;;;;2.53;1.63;;;27.20;68.80;;;;;;6383154;27;20054;-82
2023/08/05 14:29:38;;;;;;;3.38;2.30;;;27.40;69.20;;;;;;6381367;27;20047;-83
2023/08/05 14:32:39;;;;;;;8.18;2.22;;;27.90;68.50;;;;;;6383948;27;20414;-81
2023/08/05 14:35:41;;;;;;;3.10;2.08;;;27.60;67.70;;;;;;6383016;27;20118;-82
2023/08/05 14:38:44;;;;;;;7.40;2.38;;;27.40;68.30;;;;;;6381665;27;20122;-81
2023/08/05 14:41:47;;;;;;;3.60;2.30;;;27.40;68.80;;;;;;6382914;27;20140;-82
2023/08/05 14:44:49;;;;;;;2.47;2.25;;;27.10;69.50;;;;;;6383382;27;20047;-82
2023/08/05 14:47:50;;;;;;;3.15;2.53;;;26.70;69.60;;;;;;6382424;27;20043;-81
2023/08/05 14:54:45;;;;;;;3.03;2.80;;;26.00;71.20;;;;;;6377173;27;20046;-83
2023/08/05 14:57:48;;;;;;;7.68;1.73;;;25.70;71.60;;;;;;6384868;27;20057;-82
2023/08/05 15:00:52;;;;;;;4.55;1.80;;;25.60;70.00;;;;;;6384278;27;20054;-81
2023/08/05 15:03:54;;;;;;;2.85;1.40;;;25.30;69.70;;;;;;6349272;28;20067;-83
2023/08/05 15:06:55;;;;;;;2.83;2.08;;;24.80;70.30;;;;;;6365164;27;20051;-82
2023/08/05 15:09:57;;;;;;;5.00;4.53;;;24.50;70.60;;;;;;6392633;27;20059;-81
2023/08/05 15:13:00;;;;;;;4.35;2.42;;;24.20;70.90;;;;;;6383147;27;20050;-83
2023/08/05 15:16:02;;;;;;;4.30;2.03;;;24.00;71.40;;;;;;6369556;27;20043;-83
2023/08/05 15:19:04;;;;;;;2.53;2.10;;;24.00;72.10;;;;;;6377002;27;20055;-82
2023/08/05 15:22:08;;;;;;;2.85;1.90;;;23.80;72.10;;;;;;6380133;27;20129;-83
2023/08/05 15:25:10;;;;;;;4.05;1.60;;;23.70;72.50;;;;;;6377679;27;20392;-82
2023/08/05 15:28:15;;;;;;;3.08;2.10;;;23.80;72.60;;;;;;6373104;27;20126;-83
2023/08/05 15:31:18;;;;;;;7.20;4.32;;;24.40;73.10;;;;;;6378234;27;20096;-83
2023/08/05 15:34:21;;;;;;;6.43;3.92;;;25.00;71.20;;;;;;6377323;27;20046;-83
2023/08/05 15:37:29;;;;;;;3.75;2.47;;;25.30;69.30;;;;;;6381511;27;20467;-82
2023/08/05 15:40:31;;;;;;;2.33;1.80;;;25.40;68.80;;;;;;6382333;27;20050;-83
2023/08/05 15:43:37;;;;;;;6.68;2.17;;;26.00;68.60;;;;;;6381437;27;20047;-83
2023/08/05 15:46:38;;;;;;;2.38;1.65;;;26.50;66.60;;;;;;6379304;27;20123;-82
2023/08/05 15:49:40;;;;;;;2.58;1.60;;;26.80;65.60;;;;;;6361953;27;20572;-81
2023/08/05 15:52:42;;;;;;;3.78;1.75;;;26.80;65.80;;;;;;6372663;27;20042;-82